sensor_id;sensor_type;location;lat;lon;timestamp;P1;durP1;ratioP1;P2;durP2;ratioP2
19758;SDS011;10038;42.662;23.278;2022-09-09T00:02:02;12.57;;;10.97;;
19758;SDS011;10038;42.662;23.278;2022-09-09T00:04:38;19.50;;;10.50;;
19758;SDS011;10038;42.662;23.278;2022-09-09T00:07:10;19.90;;;11.03;;
19758;SDS011;10038;42.662;23.278;2022-09-09T00:09:46;12.13;;;10.00;;
19758;SDS011;10038;42.662;23.278;2022-09-09T00:12:15;12.97;;;9.90;;
19758;SDS011;10038;42.662;23.278;2022-09-09T00:14:50;14.87;;;10.37;;
19758;SDS011;10038;42.662;23.278;2022-09-09T00:17:24;12.83;;;11.03;;
19758;SDS011;10038;42.662;23.278;2022-09-09T00:20:04;15.03;;;11.07;;
19758;SDS011;10038;42.662;23.278;2022-09-09T00:22:38;13.50;;;10.60;;
19758;SDS011;10038;42.662;23.278;2022-09-09T00:25:14;13.87;;;10.80;;
19758;SDS011;10038;42.662;23.278;2022-09-09T00:27:47;12.80;;;9.77;;
19758;SDS011;10038;42.662;23.278;2022-09-09T00:30:16;12.80;;;10.10;;
19758;SDS011;10038;42.662;23.278;2022-09-09T00:32:47;10.97;;;9.60;;
19758;SDS011;10038;42.662;23.278;2022-09-09T00:35:18;13.00;;;10.63;;
19758;SDS011;10038;42.662;23.278;2022-09-09T00:37:50;15.77;;;10.93;;
19758;SDS011;10038;42.662;23.278;2022-09-09T00:40:23;15.43;;;9.13;;
19758;SDS011;10038;42.662;23.278;2022-09-09T00:42:54;16.00;;;10.00;;
19758;SDS011;10038;42.662;23.278;2022-09-09T00:45:38;12.53;;;9.73;;
19758;SDS011;10038;42.662;23.278;2022-09-09T00:48:24;14.03;;;9.40;;
19758;SDS011;10038;42.662;23.278;2022-09-09T00:51:05;17.30;;;9.73;;
19758;SDS011;10038;42.662;23.278;2022-09-09T00:53:53;10.97;;;8.57;;
19758;SDS011;10038;42.662;23.278;2022-09-09T00:56:42;11.77;;;9.30;;
19758;SDS011;10038;42.662;23.278;2022-09-09T00:59:19;10.47;;;8.77;;
19758;SDS011;10038;42.662;23.278;2022-09-09T01:01:54;12.20;;;8.83;;
19758;SDS011;10038;42.662;23.278;2022-09-09T01:04:23;13.63;;;8.90;;
19758;SDS011;10038;42.662;23.278;2022-09-09T01:06:59;11.03;;;9.20;;
19758;SDS011;10038;42.662;23.278;2022-09-09T01:09:32;12.27;;;9.80;;
19758;SDS011;10038;42.662;23.278;2022-09-09T01:12:09;14.17;;;9.77;;
19758;SDS011;10038;42.662;23.278;2022-09-09T01:14:42;11.90;;;9.03;;
19758;SDS011;10038;42.662;23.278;2022-09-09T01:17:14;11.63;;;8.93;;
19758;SDS011;10038;42.662;23.278;2022-09-09T01:19:49;11.90;;;9.33;;
19758;SDS011;10038;42.662;23.278;2022-09-09T01:22:28;11.20;;;8.90;;
19758;SDS011;10038;42.662;23.278;2022-09-09T01:25:11;12.60;;;9.57;;
19758;SDS011;10038;42.662;23.278;2022-09-09T01:27:52;20.83;;;9.80;;
19758;SDS011;10038;42.662;23.278;2022-09-09T01:30:22;10.30;;;8.97;;
19758;SDS011;10038;42.662;23.278;2022-09-09T01:32:50;12.40;;;9.37;;
19758;SDS011;10038;42.662;23.278;2022-09-09T01:35:22;11.07;;;9.20;;
19758;SDS011;10038;42.662;23.278;2022-09-09T01:37:58;14.87;;;10.40;;
19758;SDS011;10038;42.662;23.278;2022-09-09T01:40:25;14.80;;;9.50;;
19758;SDS011;10038;42.662;23.278;2022-09-09T01:42:54;10.90;;;8.97;;
19758;SDS011;10038;42.662;23.278;2022-09-09T01:45:21;11.90;;;9.20;;
19758;SDS011;10038;42.662;23.278;2022-09-09T01:47:50;13.60;;;10.63;;
19758;SDS011;10038;42.662;23.278;2022-09-09T01:50:18;11.17;;;9.60;;
19758;SDS011;10038;42.662;23.278;2022-09-09T01:52:47;10.83;;;9.73;;
19758;SDS011;10038;42.662;23.278;2022-09-09T01:55:19;10.63;;;9.53;;
19758;SDS011;10038;42.662;23.278;2022-09-09T01:57:56;10.60;;;9.50;;
19758;SDS011;10038;42.662;23.278;2022-09-09T02:00:33;11.40;;;8.50;;
19758;SDS011;10038;42.662;23.278;2022-09-09T02:03:09;12.70;;;8.90;;
19758;SDS011;10038;42.662;23.278;2022-09-09T02:05:44;13.70;;;10.50;;
19758;SDS011;10038;42.662;23.278;2022-09-09T02:08:16;12.00;;;9.90;;
19758;SDS011;10038;42.662;23.278;2022-09-09T02:10:47;11.90;;;8.50;;
19758;SDS011;10038;42.662;23.278;2022-09-09T02:13:22;12.50;;;9.97;;
19758;SDS011;10038;42.662;23.278;2022-09-09T02:15:51;15.43;;;10.50;;
19758;SDS011;10038;42.662;23.278;2022-09-09T02:18:22;14.63;;;11.10;;
19758;SDS011;10038;42.662;23.278;2022-09-09T02:20:53;10.63;;;9.53;;
19758;SDS011;10038;42.662;23.278;2022-09-09T02:23:22;11.30;;;10.13;;
19758;SDS011;10038;42.662;23.278;2022-09-09T02:25:50;15.80;;;10.60;;
19758;SDS011;10038;42.662;23.278;2022-09-09T02:28:19;10.53;;;8.73;;
19758;SDS011;10038;42.662;23.278;2022-09-09T02:30:51;12.70;;;9.93;;
19758;SDS011;10038;42.662;23.278;2022-09-09T02:33:20;13.30;;;8.90;;
19758;SDS011;10038;42.662;23.278;2022-09-09T02:35:50;19.70;;;10.57;;
19758;SDS011;10038;42.662;23.278;2022-09-09T02:38:19;20.40;;;9.47;;
19758;SDS011;10038;42.662;23.278;2022-09-09T02:40:49;11.77;;;9.70;;
19758;SDS011;10038;42.662;23.278;2022-09-09T02:43:16;13.60;;;9.60;;
19758;SDS011;10038;42.662;23.278;2022-09-09T02:45:47;22.43;;;9.70;;
19758;SDS011;10038;42.662;23.278;2022-09-09T02:48:25;13.77;;;10.30;;
19758;SDS011;10038;42.662;23.278;2022-09-09T02:50:58;15.93;;;10.87;;
19758;SDS011;10038;42.662;23.278;2022-09-09T02:53:33;14.33;;;11.10;;
19758;SDS011;10038;42.662;23.278;2022-09-09T02:56:08;15.20;;;12.70;;
19758;SDS011;10038;42.662;23.278;2022-09-09T02:58:40;12.80;;;11.13;;
19758;SDS011;10038;42.662;23.278;2022-09-09T03:01:08;12.03;;;10.70;;
19758;SDS011;10038;42.662;23.278;2022-09-09T03:03:36;15.73;;;10.40;;
19758;SDS011;10038;42.662;23.278;2022-09-09T03:06:03;16.73;;;12.10;;
19758;SDS011;10038;42.662;23.278;2022-09-09T03:08:30;17.80;;;11.50;;
19758;SDS011;10038;42.662;23.278;2022-09-09T03:10:58;15.17;;;10.57;;
19758;SDS011;10038;42.662;23.278;2022-09-09T03:13:26;18.07;;;12.80;;
19758;SDS011;10038;42.662;23.278;2022-09-09T03:15:53;14.83;;;11.27;;
19758;SDS011;10038;42.662;23.278;2022-09-09T03:18:21;15.00;;;10.87;;
19758;SDS011;10038;42.662;23.278;2022-09-09T03:20:48;14.40;;;11.93;;
19758;SDS011;10038;42.662;23.278;2022-09-09T03:23:16;12.93;;;10.93;;
19758;SDS011;10038;42.662;23.278;2022-09-09T03:25:46;14.60;;;10.73;;
19758;SDS011;10038;42.662;23.278;2022-09-09T03:28:14;13.60;;;10.83;;
19758;SDS011;10038;42.662;23.278;2022-09-09T03:30:40;16.10;;;11.10;;
19758;SDS011;10038;42.662;23.278;2022-09-09T03:33:07;14.50;;;10.30;;
19758;SDS011;10038;42.662;23.278;2022-09-09T03:35:35;13.90;;;11.20;;
19758;SDS011;10038;42.662;23.278;2022-09-09T03:38:02;13.53;;;12.03;;
19758;SDS011;10038;42.662;23.278;2022-09-09T03:40:29;13.23;;;9.60;;
19758;SDS011;10038;42.662;23.278;2022-09-09T03:42:56;14.70;;;10.37;;
19758;SDS011;10038;42.662;23.278;2022-09-09T03:45:22;14.60;;;13.10;;
19758;SDS011;10038;42.662;23.278;2022-09-09T03:47:49;13.70;;;11.73;;
19758;SDS011;10038;42.662;23.278;2022-09-09T03:50:16;15.90;;;11.80;;
19758;SDS011;10038;42.662;23.278;2022-09-09T03:52:44;18.87;;;12.50;;
19758;SDS011;10038;42.662;23.278;2022-09-09T03:55:13;12.53;;;11.00;;
19758;SDS011;10038;42.662;23.278;2022-09-09T03:57:40;16.20;;;11.97;;
19758;SDS011;10038;42.662;23.278;2022-09-09T04:00:07;15.97;;;11.77;;
19758;SDS011;10038;42.662;23.278;2022-09-09T04:02:35;14.13;;;11.20;;
19758;SDS011;10038;42.662;23.278;2022-09-09T04:05:02;21.83;;;12.57;;
19758;SDS011;10038;42.662;23.278;2022-09-09T04:07:28;22.10;;;12.97;;
19758;SDS011;10038;42.662;23.278;2022-09-09T04:09:56;23.50;;;14.10;;
19758;SDS011;10038;42.662;23.278;2022-09-09T04:12:23;22.23;;;14.00;;
19758;SDS011;10038;42.662;23.278;2022-09-09T04:14:50;23.73;;;13.87;;
19758;SDS011;10038;42.662;23.278;2022-09-09T04:17:17;16.40;;;13.20;;
19758;SDS011;10038;42.662;23.278;2022-09-09T04:19:43;21.30;;;13.30;;
19758;SDS011;10038;42.662;23.278;2022-09-09T04:22:10;21.37;;;14.80;;
19758;SDS011;10038;42.662;23.278;2022-09-09T04:24:37;25.77;;;15.97;;
19758;SDS011;10038;42.662;23.278;2022-09-09T04:27:05;21.43;;;17.30;;
19758;SDS011;10038;42.662;23.278;2022-09-09T04:29:32;21.40;;;15.60;;
19758;SDS011;10038;42.662;23.278;2022-09-09T04:31:59;33.70;;;16.53;;
19758;SDS011;10038;42.662;23.278;2022-09-09T04:34:26;27.93;;;15.47;;
19758;SDS011;10038;42.662;23.278;2022-09-09T04:36:54;18.73;;;15.40;;
19758;SDS011;10038;42.662;23.278;2022-09-09T04:39:22;26.77;;;15.40;;
19758;SDS011;10038;42.662;23.278;2022-09-09T04:41:48;18.83;;;14.90;;
19758;SDS011;10038;42.662;23.278;2022-09-09T04:44:16;19.93;;;15.20;;
19758;SDS011;10038;42.662;23.278;2022-09-09T04:46:43;27.70;;;17.60;;
19758;SDS011;10038;42.662;23.278;2022-09-09T04:49:10;23.03;;;16.20;;
19758;SDS011;10038;42.662;23.278;2022-09-09T04:51:37;22.80;;;16.37;;
19758;SDS011;10038;42.662;23.278;2022-09-09T04:54:04;28.83;;;15.80;;
19758;SDS011;10038;42.662;23.278;2022-09-09T04:56:30;23.03;;;16.17;;
19758;SDS011;10038;42.662;23.278;2022-09-09T04:58:57;20.10;;;15.17;;
19758;SDS011;10038;42.662;23.278;2022-09-09T05:01:25;22.70;;;15.07;;
19758;SDS011;10038;42.662;23.278;2022-09-09T05:03:52;25.63;;;14.97;;
19758;SDS011;10038;42.662;23.278;2022-09-09T05:06:20;20.80;;;14.67;;
19758;SDS011;10038;42.662;23.278;2022-09-09T05:08:47;24.70;;;14.93;;
19758;SDS011;10038;42.662;23.278;2022-09-09T05:11:15;23.33;;;15.73;;
19758;SDS011;10038;42.662;23.278;2022-09-09T05:13:42;21.30;;;13.70;;
19758;SDS011;10038;42.662;23.278;2022-09-09T05:16:10;16.20;;;13.53;;
19758;SDS011;10038;42.662;23.278;2022-09-09T05:18:39;20.00;;;14.27;;
19758;SDS011;10038;42.662;23.278;2022-09-09T05:21:07;16.17;;;12.30;;
19758;SDS011;10038;42.662;23.278;2022-09-09T05:23:35;17.60;;;14.73;;
19758;SDS011;10038;42.662;23.278;2022-09-09T05:26:02;17.00;;;13.43;;
19758;SDS011;10038;42.662;23.278;2022-09-09T05:28:30;17.33;;;14.03;;
19758;SDS011;10038;42.662;23.278;2022-09-09T05:30:57;17.53;;;15.00;;
19758;SDS011;10038;42.662;23.278;2022-09-09T05:33:25;18.90;;;13.17;;
19758;SDS011;10038;42.662;23.278;2022-09-09T05:35:58;17.53;;;14.90;;
19758;SDS011;10038;42.662;23.278;2022-09-09T05:38:26;15.10;;;13.50;;
19758;SDS011;10038;42.662;23.278;2022-09-09T05:40:54;17.93;;;13.83;;
19758;SDS011;10038;42.662;23.278;2022-09-09T05:43:21;16.40;;;13.27;;
19758;SDS011;10038;42.662;23.278;2022-09-09T05:45:58;24.73;;;17.33;;
19758;SDS011;10038;42.662;23.278;2022-09-09T05:48:27;20.27;;;15.40;;
19758;SDS011;10038;42.662;23.278;2022-09-09T05:50:55;20.57;;;13.73;;
19758;SDS011;10038;42.662;23.278;2022-09-09T05:53:23;23.47;;;15.47;;
19758;SDS011;10038;42.662;23.278;2022-09-09T05:55:50;20.43;;;14.57;;
19758;SDS011;10038;42.662;23.278;2022-09-09T05:58:17;14.87;;;13.03;;
19758;SDS011;10038;42.662;23.278;2022-09-09T06:00:44;17.40;;;14.40;;
19758;SDS011;10038;42.662;23.278;2022-09-09T06:03:11;19.90;;;14.47;;
19758;SDS011;10038;42.662;23.278;2022-09-09T06:05:37;17.70;;;13.33;;
19758;SDS011;10038;42.662;23.278;2022-09-09T06:08:04;20.03;;;14.23;;
19758;SDS011;10038;42.662;23.278;2022-09-09T06:10:34;18.73;;;14.80;;
19758;SDS011;10038;42.662;23.278;2022-09-09T06:13:01;18.87;;;14.20;;
19758;SDS011;10038;42.662;23.278;2022-09-09T06:15:28;14.80;;;12.63;;
19758;SDS011;10038;42.662;23.278;2022-09-09T06:17:55;16.73;;;12.40;;
19758;SDS011;10038;42.662;23.278;2022-09-09T06:20:22;17.23;;;13.20;;
19758;SDS011;10038;42.662;23.278;2022-09-09T06:22:49;13.33;;;11.50;;
19758;SDS011;10038;42.662;23.278;2022-09-09T06:25:16;12.53;;;11.27;;
19758;SDS011;10038;42.662;23.278;2022-09-09T06:27:47;19.13;;;13.10;;
19758;SDS011;10038;42.662;23.278;2022-09-09T06:30:14;12.97;;;10.17;;
19758;SDS011;10038;42.662;23.278;2022-09-09T06:32:42;16.40;;;12.03;;
19758;SDS011;10038;42.662;23.278;2022-09-09T06:35:09;12.03;;;10.83;;
19758;SDS011;10038;42.662;23.278;2022-09-09T06:37:36;12.07;;;10.77;;
19758;SDS011;10038;42.662;23.278;2022-09-09T06:40:03;13.80;;;12.17;;
19758;SDS011;10038;42.662;23.278;2022-09-09T06:42:30;13.33;;;12.03;;
19758;SDS011;10038;42.662;23.278;2022-09-09T06:44:59;14.00;;;12.63;;
19758;SDS011;10038;42.662;23.278;2022-09-09T06:47:25;14.73;;;12.70;;
19758;SDS011;10038;42.662;23.278;2022-09-09T06:49:55;14.17;;;12.17;;
19758;SDS011;10038;42.662;23.278;2022-09-09T06:52:21;11.97;;;10.83;;
19758;SDS011;10038;42.662;23.278;2022-09-09T06:54:49;13.70;;;12.30;;
19758;SDS011;10038;42.662;23.278;2022-09-09T06:57:16;13.30;;;11.57;;
19758;SDS011;10038;42.662;23.278;2022-09-09T06:59:43;14.93;;;12.10;;
19758;SDS011;10038;42.662;23.278;2022-09-09T07:02:11;13.60;;;10.40;;
19758;SDS011;10038;42.662;23.278;2022-09-09T07:04:37;15.37;;;11.80;;
19758;SDS011;10038;42.662;23.278;2022-09-09T07:07:04;13.50;;;12.10;;
19758;SDS011;10038;42.662;23.278;2022-09-09T07:09:31;11.63;;;10.53;;
19758;SDS011;10038;42.662;23.278;2022-09-09T07:11:58;16.13;;;9.70;;
19758;SDS011;10038;42.662;23.278;2022-09-09T07:14:25;11.73;;;10.63;;
19758;SDS011;10038;42.662;23.278;2022-09-09T07:16:52;11.13;;;10.03;;
19758;SDS011;10038;42.662;23.278;2022-09-09T07:19:20;13.40;;;9.93;;
19758;SDS011;10038;42.662;23.278;2022-09-09T07:21:47;11.83;;;10.73;;
19758;SDS011;10038;42.662;23.278;2022-09-09T07:24:14;11.17;;;10.00;;
19758;SDS011;10038;42.662;23.278;2022-09-09T07:26:41;12.80;;;11.60;;
19758;SDS011;10038;42.662;23.278;2022-09-09T07:29:09;11.90;;;10.70;;
19758;SDS011;10038;42.662;23.278;2022-09-09T07:31:38;12.03;;;10.90;;
19758;SDS011;10038;42.662;23.278;2022-09-09T07:34:06;15.63;;;11.20;;
19758;SDS011;10038;42.662;23.278;2022-09-09T07:36:35;9.53;;;8.53;;
19758;SDS011;10038;42.662;23.278;2022-09-09T07:39:04;9.50;;;8.70;;
19758;SDS011;10038;42.662;23.278;2022-09-09T07:41:33;10.47;;;8.20;;
19758;SDS011;10038;42.662;23.278;2022-09-09T07:44:03;9.43;;;8.53;;
19758;SDS011;10038;42.662;23.278;2022-09-09T07:46:31;9.33;;;8.50;;
19758;SDS011;10038;42.662;23.278;2022-09-09T07:48:59;9.17;;;8.37;;
19758;SDS011;10038;42.662;23.278;2022-09-09T07:51:26;9.10;;;8.30;;
19758;SDS011;10038;42.662;23.278;2022-09-09T07:53:56;9.93;;;8.00;;
19758;SDS011;10038;42.662;23.278;2022-09-09T07:56:27;8.53;;;7.67;;
19758;SDS011;10038;42.662;23.278;2022-09-09T07:58:56;8.00;;;6.63;;
19758;SDS011;10038;42.662;23.278;2022-09-09T08:01:24;9.73;;;7.83;;
19758;SDS011;10038;42.662;23.278;2022-09-09T08:03:53;9.30;;;7.80;;
19758;SDS011;10038;42.662;23.278;2022-09-09T08:06:23;8.27;;;7.47;;
19758;SDS011;10038;42.662;23.278;2022-09-09T08:08:52;8.43;;;7.10;;
19758;SDS011;10038;42.662;23.278;2022-09-09T08:11:22;8.63;;;7.60;;
19758;SDS011;10038;42.662;23.278;2022-09-09T08:13:52;9.80;;;8.80;;
19758;SDS011;10038;42.662;23.278;2022-09-09T08:16:20;8.00;;;7.30;;
19758;SDS011;10038;42.662;23.278;2022-09-09T08:18:48;8.57;;;7.87;;
19758;SDS011;10038;42.662;23.278;2022-09-09T08:21:17;8.60;;;7.80;;
19758;SDS011;10038;42.662;23.278;2022-09-09T08:23:45;9.87;;;9.03;;
19758;SDS011;10038;42.662;23.278;2022-09-09T08:26:13;8.80;;;7.93;;
19758;SDS011;10038;42.662;23.278;2022-09-09T08:28:43;9.03;;;8.20;;
19758;SDS011;10038;42.662;23.278;2022-09-09T08:31:11;8.90;;;8.00;;
19758;SDS011;10038;42.662;23.278;2022-09-09T08:33:39;9.60;;;8.60;;
19758;SDS011;10038;42.662;23.278;2022-09-09T08:36:08;10.27;;;9.30;;
19758;SDS011;10038;42.662;23.278;2022-09-09T08:38:37;10.07;;;8.83;;
19758;SDS011;10038;42.662;23.278;2022-09-09T08:41:11;14.10;;;8.90;;
19758;SDS011;10038;42.662;23.278;2022-09-09T08:44:01;10.93;;;8.90;;
19758;SDS011;10038;42.662;23.278;2022-09-09T08:46:34;10.60;;;8.27;;
19758;SDS011;10038;42.662;23.278;2022-09-09T08:49:13;9.23;;;8.13;;
19758;SDS011;10038;42.662;23.278;2022-09-09T08:51:50;8.40;;;7.60;;
19758;SDS011;10038;42.662;23.278;2022-09-09T08:54:22;8.87;;;7.67;;
19758;SDS011;10038;42.662;23.278;2022-09-09T08:56:50;8.60;;;7.80;;
19758;SDS011;10038;42.662;23.278;2022-09-09T08:59:18;11.40;;;7.97;;
19758;SDS011;10038;42.662;23.278;2022-09-09T09:01:54;9.77;;;8.87;;
19758;SDS011;10038;42.662;23.278;2022-09-09T09:04:33;8.80;;;7.50;;
19758;SDS011;10038;42.662;23.278;2022-09-09T09:07:11;8.87;;;8.07;;
19758;SDS011;10038;42.662;23.278;2022-09-09T09:09:46;8.70;;;7.60;;
19758;SDS011;10038;42.662;23.278;2022-09-09T09:12:19;8.00;;;7.40;;
19758;SDS011;10038;42.662;23.278;2022-09-09T09:14:50;8.70;;;8.00;;
19758;SDS011;10038;42.662;23.278;2022-09-09T09:17:18;7.23;;;6.63;;
19758;SDS011;10038;42.662;23.278;2022-09-09T09:19:46;13.93;;;7.60;;
19758;SDS011;10038;42.662;23.278;2022-09-09T09:22:16;8.53;;;7.53;;
19758;SDS011;10038;42.662;23.278;2022-09-09T09:24:50;8.43;;;7.60;;
19758;SDS011;10038;42.662;23.278;2022-09-09T09:27:21;7.60;;;6.60;;
19758;SDS011;10038;42.662;23.278;2022-09-09T09:29:58;9.13;;;7.03;;
19758;SDS011;10038;42.662;23.278;2022-09-09T09:32:28;8.50;;;6.63;;
19758;SDS011;10038;42.662;23.278;2022-09-09T09:34:59;7.90;;;6.70;;
19758;SDS011;10038;42.662;23.278;2022-09-09T09:37:35;7.27;;;6.60;;
19758;SDS011;10038;42.662;23.278;2022-09-09T09:40:09;8.80;;;6.80;;
19758;SDS011;10038;42.662;23.278;2022-09-09T09:42:36;8.30;;;6.80;;
19758;SDS011;10038;42.662;23.278;2022-09-09T09:45:12;8.37;;;6.50;;
19758;SDS011;10038;42.662;23.278;2022-09-09T09:47:43;8.00;;;7.17;;
19758;SDS011;10038;42.662;23.278;2022-09-09T09:50:19;7.33;;;6.20;;
19758;SDS011;10038;42.662;23.278;2022-09-09T09:52:53;8.00;;;6.33;;
19758;SDS011;10038;42.662;23.278;2022-09-09T09:55:22;7.90;;;6.80;;
19758;SDS011;10038;42.662;23.278;2022-09-09T09:57:50;7.40;;;6.60;;
19758;SDS011;10038;42.662;23.278;2022-09-09T10:00:20;6.70;;;6.13;;
19758;SDS011;10038;42.662;23.278;2022-09-09T10:02:48;9.17;;;6.70;;
19758;SDS011;10038;42.662;23.278;2022-09-09T10:05:18;7.07;;;6.13;;
19758;SDS011;10038;42.662;23.278;2022-09-09T10:07:46;7.83;;;6.73;;
19758;SDS011;10038;42.662;23.278;2022-09-09T10:10:15;9.83;;;7.10;;
19758;SDS011;10038;42.662;23.278;2022-09-09T10:12:54;8.00;;;6.10;;
19758;SDS011;10038;42.662;23.278;2022-09-09T10:15:34;7.07;;;5.77;;
19758;SDS011;10038;42.662;23.278;2022-09-09T10:18:13;8.70;;;7.63;;
19758;SDS011;10038;42.662;23.278;2022-09-09T10:20:59;8.50;;;7.13;;
19758;SDS011;10038;42.662;23.278;2022-09-09T10:23:41;8.67;;;7.10;;
19758;SDS011;10038;42.662;23.278;2022-09-09T10:26:24;7.13;;;6.47;;
19758;SDS011;10038;42.662;23.278;2022-09-09T10:29:04;8.07;;;7.27;;
19758;SDS011;10038;42.662;23.278;2022-09-09T10:31:51;9.67;;;7.37;;
19758;SDS011;10038;42.662;23.278;2022-09-09T10:34:34;9.60;;;6.80;;
19758;SDS011;10038;42.662;23.278;2022-09-09T10:37:17;7.70;;;6.37;;
19758;SDS011;10038;42.662;23.278;2022-09-09T10:40:02;7.60;;;6.90;;
19758;SDS011;10038;42.662;23.278;2022-09-09T10:42:41;9.50;;;6.87;;
19758;SDS011;10038;42.662;23.278;2022-09-09T10:45:13;7.70;;;6.93;;
19758;SDS011;10038;42.662;23.278;2022-09-09T10:50:49;8.93;;;8.00;;
19758;SDS011;10038;42.662;23.278;2022-09-09T10:53:24;8.40;;;7.60;;
19758;SDS011;10038;42.662;23.278;2022-09-09T10:56:01;14.43;;;8.67;;
19758;SDS011;10038;42.662;23.278;2022-09-09T10:58:35;11.80;;;9.47;;
19758;SDS011;10038;42.662;23.278;2022-09-09T11:01:09;10.60;;;7.47;;
19758;SDS011;10038;42.662;23.278;2022-09-09T11:03:43;9.20;;;8.23;;
19758;SDS011;10038;42.662;23.278;2022-09-09T11:06:16;9.90;;;8.40;;
19758;SDS011;10038;42.662;23.278;2022-09-09T11:08:48;9.97;;;8.23;;
19758;SDS011;10038;42.662;23.278;2022-09-09T11:11:16;9.50;;;8.50;;
19758;SDS011;10038;42.662;23.278;2022-09-09T11:13:48;9.83;;;8.20;;
19758;SDS011;10038;42.662;23.278;2022-09-09T11:16:22;11.30;;;9.20;;
19758;SDS011;10038;42.662;23.278;2022-09-09T11:18:57;11.33;;;8.40;;
19758;SDS011;10038;42.662;23.278;2022-09-09T11:21:29;9.40;;;8.40;;
19758;SDS011;10038;42.662;23.278;2022-09-09T11:24:01;9.87;;;8.87;;
19758;SDS011;10038;42.662;23.278;2022-09-09T11:26:36;12.60;;;8.80;;
19758;SDS011;10038;42.662;23.278;2022-09-09T11:29:15;10.00;;;8.53;;
19758;SDS011;10038;42.662;23.278;2022-09-09T11:31:57;9.10;;;8.20;;
19758;SDS011;10038;42.662;23.278;2022-09-09T11:34:53;10.73;;;8.57;;
19758;SDS011;10038;42.662;23.278;2022-09-09T11:37:36;9.23;;;8.30;;
19758;SDS011;10038;42.662;23.278;2022-09-09T11:40:16;10.60;;;8.83;;
19758;SDS011;10038;42.662;23.278;2022-09-09T11:42:45;9.07;;;8.13;;
19758;SDS011;10038;42.662;23.278;2022-09-09T11:45:21;11.70;;;8.83;;
19758;SDS011;10038;42.662;23.278;2022-09-09T11:47:52;14.57;;;9.20;;
19758;SDS011;10038;42.662;23.278;2022-09-09T11:50:29;11.77;;;9.10;;
19758;SDS011;10038;42.662;23.278;2022-09-09T11:53:05;10.80;;;9.27;;
19758;SDS011;10038;42.662;23.278;2022-09-09T11:55:46;12.57;;;8.70;;
19758;SDS011;10038;42.662;23.278;2022-09-09T11:58:17;14.50;;;8.80;;
19758;SDS011;10038;42.662;23.278;2022-09-09T12:00:45;10.40;;;8.20;;
19758;SDS011;10038;42.662;23.278;2022-09-09T12:06:10;10.30;;;8.50;;
19758;SDS011;10038;42.662;23.278;2022-09-09T12:08:42;10.47;;;8.80;;
19758;SDS011;10038;42.662;23.278;2022-09-09T12:11:11;15.13;;;8.60;;
19758;SDS011;10038;42.662;23.278;2022-09-09T12:13:37;11.37;;;8.07;;
19758;SDS011;10038;42.662;23.278;2022-09-09T12:16:26;11.30;;;8.27;;
19758;SDS011;10038;42.662;23.278;2022-09-09T12:19:02;9.63;;;8.20;;
19758;SDS011;10038;42.662;23.278;2022-09-09T12:21:33;8.67;;;7.77;;
19758;SDS011;10038;42.662;23.278;2022-09-09T12:24:04;9.27;;;7.77;;
19758;SDS011;10038;42.662;23.278;2022-09-09T12:26:36;8.97;;;8.00;;
19758;SDS011;10038;42.662;23.278;2022-09-09T12:29:12;10.30;;;8.80;;
19758;SDS011;10038;42.662;23.278;2022-09-09T12:31:51;10.63;;;9.53;;
19758;SDS011;10038;42.662;23.278;2022-09-09T12:34:27;9.57;;;8.67;;
19758;SDS011;10038;42.662;23.278;2022-09-09T12:37:04;11.07;;;8.40;;
19758;SDS011;10038;42.662;23.278;2022-09-09T12:39:37;9.07;;;7.03;;
19758;SDS011;10038;42.662;23.278;2022-09-09T12:42:15;14.67;;;7.60;;
19758;SDS011;10038;42.662;23.278;2022-09-09T12:44:50;10.47;;;8.10;;
19758;SDS011;10038;42.662;23.278;2022-09-09T12:47:21;15.40;;;9.20;;
19758;SDS011;10038;42.662;23.278;2022-09-09T12:49:54;14.37;;;8.10;;
19758;SDS011;10038;42.662;23.278;2022-09-09T12:52:25;10.03;;;7.10;;
19758;SDS011;10038;42.662;23.278;2022-09-09T12:54:56;9.10;;;8.07;;
19758;SDS011;10038;42.662;23.278;2022-09-09T12:57:25;14.80;;;8.07;;
19758;SDS011;10038;42.662;23.278;2022-09-09T13:00:06;16.23;;;8.90;;
19758;SDS011;10038;42.662;23.278;2022-09-09T13:02:45;10.40;;;8.03;;
19758;SDS011;10038;42.662;23.278;2022-09-09T13:05:14;8.93;;;8.13;;
19758;SDS011;10038;42.662;23.278;2022-09-09T13:07:44;10.60;;;7.73;;
19758;SDS011;10038;42.662;23.278;2022-09-09T13:10:12;9.23;;;8.33;;
19758;SDS011;10038;42.662;23.278;2022-09-09T13:12:41;10.17;;;9.20;;
19758;SDS011;10038;42.662;23.278;2022-09-09T13:15:14;12.13;;;9.20;;
19758;SDS011;10038;42.662;23.278;2022-09-09T13:17:51;9.30;;;8.27;;
19758;SDS011;10038;42.662;23.278;2022-09-09T13:20:20;10.93;;;8.87;;
19758;SDS011;10038;42.662;23.278;2022-09-09T13:22:50;12.60;;;9.20;;
19758;SDS011;10038;42.662;23.278;2022-09-09T13:25:20;10.07;;;7.97;;
19758;SDS011;10038;42.662;23.278;2022-09-09T13:27:57;8.80;;;7.90;;
19758;SDS011;10038;42.662;23.278;2022-09-09T13:30:27;9.63;;;8.63;;
19758;SDS011;10038;42.662;23.278;2022-09-09T13:33:04;10.20;;;8.37;;
19758;SDS011;10038;42.662;23.278;2022-09-09T13:35:48;9.47;;;8.30;;
19758;SDS011;10038;42.662;23.278;2022-09-09T13:38:18;13.50;;;9.30;;
19758;SDS011;10038;42.662;23.278;2022-09-09T13:40:52;9.77;;;8.73;;
19758;SDS011;10038;42.662;23.278;2022-09-09T13:43:23;11.00;;;9.40;;
19758;SDS011;10038;42.662;23.278;2022-09-09T13:45:55;10.20;;;8.97;;
19758;SDS011;10038;42.662;23.278;2022-09-09T13:48:23;11.83;;;8.43;;
19758;SDS011;10038;42.662;23.278;2022-09-09T13:50:54;10.50;;;8.43;;
19758;SDS011;10038;42.662;23.278;2022-09-09T13:53:27;10.10;;;8.40;;
19758;SDS011;10038;42.662;23.278;2022-09-09T13:55:55;10.53;;;8.67;;
19758;SDS011;10038;42.662;23.278;2022-09-09T13:58:23;14.37;;;9.57;;
19758;SDS011;10038;42.662;23.278;2022-09-09T14:00:50;9.83;;;8.77;;
19758;SDS011;10038;42.662;23.278;2022-09-09T14:03:18;12.57;;;8.43;;
19758;SDS011;10038;42.662;23.278;2022-09-09T14:05:45;10.57;;;8.50;;
19758;SDS011;10038;42.662;23.278;2022-09-09T14:08:15;13.33;;;9.57;;
19758;SDS011;10038;42.662;23.278;2022-09-09T14:10:48;10.47;;;8.30;;
19758;SDS011;10038;42.662;23.278;2022-09-09T14:13:15;14.90;;;9.70;;
19758;SDS011;10038;42.662;23.278;2022-09-09T14:15:42;11.20;;;8.30;;
19758;SDS011;10038;42.662;23.278;2022-09-09T14:18:09;9.13;;;7.87;;
19758;SDS011;10038;42.662;23.278;2022-09-09T14:20:38;9.30;;;8.00;;
19758;SDS011;10038;42.662;23.278;2022-09-09T14:23:05;9.47;;;8.43;;
19758;SDS011;10038;42.662;23.278;2022-09-09T14:25:31;10.50;;;7.63;;
19758;SDS011;10038;42.662;23.278;2022-09-09T14:28:00;12.80;;;8.73;;
19758;SDS011;10038;42.662;23.278;2022-09-09T14:30:27;12.20;;;8.63;;
19758;SDS011;10038;42.662;23.278;2022-09-09T14:32:54;11.83;;;8.57;;
19758;SDS011;10038;42.662;23.278;2022-09-09T14:35:21;10.73;;;8.80;;
19758;SDS011;10038;42.662;23.278;2022-09-09T14:37:47;10.67;;;9.57;;
19758;SDS011;10038;42.662;23.278;2022-09-09T14:40:14;9.63;;;7.93;;
19758;SDS011;10038;42.662;23.278;2022-09-09T14:42:41;12.97;;;9.10;;
19758;SDS011;10038;42.662;23.278;2022-09-09T14:45:10;17.63;;;9.77;;
19758;SDS011;10038;42.662;23.278;2022-09-09T14:47:37;13.57;;;8.43;;
19758;SDS011;10038;42.662;23.278;2022-09-09T14:50:04;8.97;;;8.07;;